Time;durP1;ratioP1;P1;durP2;ratioP2;P2;SDS_P1;SDS_P2;PMS_P1;PMS_P2;Temp;Humidity;BMP_temperature;BMP_pressure;BME280_temperature;BME280_humidity;BME280_pressure;Samples;Min_cycle;Max_cycle;Signal;HPM_P1;HPM_P2
2022/04/28 00:00:28;;;;;;;;;;;17.10;83.20;;;;;;3137252;28;19928;-24
2022/04/28 00:02:09;;;;;;;;;;;17.00;83.10;;;;;;3137632;28;20321;-25
2022/04/28 00:03:39;;;;;;;;;;;17.10;83.10;;;;;;3136313;28;20019;-24
2022/04/28 00:05:10;;;;;;;;;;;17.00;82.90;;;;;;3136945;28;19920;-26
2022/04/28 00:06:41;;;;;;;;;;;17.00;82.80;;;;;;3137336;28;20420;-25
2022/04/28 00:08:12;;;;;;;;;;;17.10;82.80;;;;;;3136778;28;19920;-25
2022/04/28 00:09:43;;;;;;;;;;;17.00;82.70;;;;;;3136786;28;19928;-24
2022/04/28 00:11:14;;;;;;;;;;;17.00;82.70;;;;;;3137219;28;19924;-25
2022/04/28 00:12:44;;;;;;;;;;;17.00;82.70;;;;;;3136918;28;19921;-26
2022/04/28 00:14:16;;;;;;;;;;;17.00;82.70;;;;;;3137109;28;19962;-24
2022/04/28 00:15:47;;;;;;;;;;;17.00;82.70;;;;;;3137031;28;19921;-28
2022/04/28 00:17:18;;;;;;;;;;;17.00;82.70;;;;;;3137141;28;19960;-24
2022/04/28 00:18:49;;;;;;;;;;;17.00;82.70;;;;;;3136604;28;20472;-26
2022/04/28 00:20:20;;;;;;;;;;;17.00;82.70;;;;;;3137025;28;19921;-25
2022/04/28 00:21:50;;;;;;;;;;;17.00;82.70;;;;;;3137073;28;19959;-26
2022/04/28 00:23:21;;;;;;;;;;;17.00;82.80;;;;;;3137093;28;20255;-26
2022/04/28 00:24:52;;;;;;;;;;;17.00;82.80;;;;;;3137221;28;19920;-27
2022/04/28 00:26:23;;;;;;;;;;;17.00;82.80;;;;;;3136935;28;19933;-28
2022/04/28 00:27:54;;;;;;;;;;;17.00;82.80;;;;;;3137007;28;19936;-26
2022/04/28 00:29:25;;;;;;;;;;;17.00;82.70;;;;;;3137019;28;20392;-25
2022/04/28 00:30:56;;;;;;;;;;;17.00;82.70;;;;;;3137180;28;19921;-27
2022/04/28 00:32:26;;;;;;;;;;;17.00;82.60;;;;;;3136840;28;20385;-28
2022/04/28 00:33:57;;;;;;;;;;;17.00;82.50;;;;;;3136974;28;20070;-26
2022/04/28 00:35:28;;;;;;;;;;;17.00;82.50;;;;;;3137158;28;19956;-27
2022/04/28 00:36:59;;;;;;;;;;;17.00;82.40;;;;;;3136694;28;20267;-26
2022/04/28 00:38:30;;;;;;;;;;;17.00;82.40;;;;;;3137245;28;19978;-26
2022/04/28 00:40:01;;;;;;;;;;;17.00;82.40;;;;;;3137005;28;19928;-24
2022/04/28 00:41:32;;;;;;;;;;;16.90;82.40;;;;;;3136933;28;20368;-25
2022/04/28 00:43:18;;;;;;;;;;;16.90;82.40;;;;;;3136659;28;19925;-24
2022/04/28 00:44:49;;;;;;;;;;;16.90;82.50;;;;;;3136861;28;20252;-26
2022/04/28 00:46:20;;;;;;;;;;;17.00;82.60;;;;;;3136850;28;19932;-26
2022/04/28 00:51:30;;;;;;;;;;;17.00;82.80;;;;;;3136670;28;19927;-26
2022/04/28 00:53:01;;;;;;;;;;;17.00;82.80;;;;;;3136675;28;19963;-25
2022/04/28 00:54:32;;;;;;;;;;;16.90;82.90;;;;;;3135838;28;19921;-27
2022/04/28 00:56:03;;;;;;;;;;;16.90;83.00;;;;;;3136715;28;19947;-24
2022/04/28 00:57:34;;;;;;;;;;;16.90;83.30;;;;;;3135855;28;20008;-25
2022/04/28 00:59:05;;;;;;;;;;;16.90;83.60;;;;;;3136399;28;19920;-27
2022/04/28 01:00:37;;;;;;;;;;;16.90;83.90;;;;;;3136770;28;20380;-24
2022/04/28 01:02:10;;;;;;;;;;;16.90;84.20;;;;;;3136969;28;19920;-24
2022/04/28 01:03:40;;;;;;;;;;;16.90;84.40;;;;;;3136595;28;19967;-27
2022/04/28 01:05:11;;;;;;;;;;;16.90;84.70;;;;;;3136813;28;19920;-25
2022/04/28 01:06:42;;;;;;;;;;;16.90;84.80;;;;;;3137183;28;20339;-25
2022/04/28 01:08:13;;;;;;;;;;;16.90;85.00;;;;;;3136700;28;19997;-24
2022/04/28 01:09:44;;;;;;;;;;;16.90;85.00;;;;;;3135775;28;19924;-27
2022/04/28 01:11:18;;;;;;;;;;;16.90;85.20;;;;;;3136348;28;20400;-26
2022/04/28 01:12:49;;;;;;;;;;;16.90;85.30;;;;;;3135863;28;20028;-25
2022/04/28 01:14:20;;;;;;;;;;;16.90;85.50;;;;;;3136341;28;19920;-25
2022/04/28 01:15:50;;;;;;;;;;;16.90;85.60;;;;;;3136893;28;19944;-27
2022/04/28 01:17:21;;;;;;;;;;;16.90;85.70;;;;;;3136388;28;19921;-29
2022/04/28 01:18:52;;;;;;;;;;;16.90;86.00;;;;;;3136835;28;19920;-27
2022/04/28 01:20:23;;;;;;;;;;;16.90;86.10;;;;;;3136336;28;20402;-26
2022/04/28 01:21:54;;;;;;;;;;;16.90;86.30;;;;;;3136514;28;19963;-25
2022/04/28 01:23:25;;;;;;;;;;;16.90;86.50;;;;;;3135866;28;19964;-26
2022/04/28 01:24:55;;;;;;;;;;;16.90;86.60;;;;;;3136255;28;19928;-24
2022/04/28 01:26:27;;;;;;;;;;;16.80;86.60;;;;;;3136431;28;19927;-26
2022/04/28 01:27:58;;;;;;;;;;;16.80;86.70;;;;;;3136710;28;20355;-24
2022/04/28 01:29:33;;;;;;;;;;;16.80;86.70;;;;;;3136579;28;19920;-27
2022/04/28 01:31:07;;;;;;;;;;;16.80;86.80;;;;;;3138894;28;19960;-28
2022/04/28 01:32:38;;;;;;;;;;;16.80;86.90;;;;;;3138997;28;19920;-25
2022/04/28 01:34:08;;;;;;;;;;;16.80;86.90;;;;;;3139072;28;19921;-28
2022/04/28 01:35:39;;;;;;;;;;;16.80;87.00;;;;;;3138374;28;19987;-24
2022/04/28 01:37:10;;;;;;;;;;;16.80;87.00;;;;;;3140564;28;19928;-24
2022/04/28 01:38:41;;;;;;;;;;;16.80;87.00;;;;;;3151442;28;19921;-24
2022/04/28 01:40:12;;;;;;;;;;;16.80;87.10;;;;;;3151524;28;19975;-25
2022/04/28 01:41:43;;;;;;;;;;;16.80;87.20;;;;;;3151954;28;19970;-27
2022/04/28 01:43:14;;;;;;;;;;;16.80;87.40;;;;;;3151126;28;19931;-27
2022/04/28 01:44:44;;;;;;;;;;;16.80;87.40;;;;;;3151381;28;19927;-27
2022/04/28 01:46:15;;;;;;;;;;;16.80;87.50;;;;;;3150873;28;19921;-27
2022/04/28 01:47:46;;;;;;;;;;;16.80;87.50;;;;;;3151041;28;19962;-26
2022/04/28 01:49:17;;;;;;;;;;;16.70;87.50;;;;;;3150322;28;19944;-26
2022/04/28 01:56:16;;;;;;;;;;;16.70;87.60;;;;;;3151417;28;19924;-25
2022/04/28 01:57:47;;;;;;;;;;;16.70;87.50;;;;;;3151128;28;20262;-26
2022/04/28 01:59:18;;;;;;;;;;;16.70;87.50;;;;;;3150345;28;20313;-25
2022/04/28 02:00:50;;;;;;;;;;;16.70;87.50;;;;;;3146371;28;20358;-26
2022/04/28 02:02:21;;;;;;;;;;;16.70;87.50;;;;;;3150754;28;20266;-25
2022/04/28 02:03:52;;;;;;;;;;;16.70;87.50;;;;;;3151120;28;19920;-26
2022/04/28 02:05:23;;;;;;;;;;;16.70;87.60;;;;;;3151161;28;19924;-24
2022/04/28 02:06:54;;;;;;;;;;;16.70;87.50;;;;;;3151667;28;19924;-24
2022/04/28 02:08:25;;;;;;;;;;;16.70;87.60;;;;;;3150956;28;19920;-25
2022/04/28 02:09:56;;;;;;;;;;;16.70;87.50;;;;;;3151218;28;19921;-27
2022/04/28 02:11:27;;;;;;;;;;;16.70;87.50;;;;;;3151117;28;20010;-28
2022/04/28 02:12:58;;;;;;;;;;;16.70;87.50;;;;;;3151050;28;19927;-25
2022/04/28 02:14:29;;;;;;;;;;;16.70;87.50;;;;;;3150949;28;19921;-26
2022/04/28 02:16:18;;;;;;;;;;;16.70;87.50;;;;;;3150943;28;19909;-26
2022/04/28 02:17:49;;;;;;;;;;;16.60;87.30;;;;;;3151000;28;19920;-27
2022/04/28 02:19:21;;;;;;;;;;;16.60;87.30;;;;;;3151396;28;20369;-27
2022/04/28 02:20:52;;;;;;;;;;;16.70;87.30;;;;;;3150873;28;19921;-27
2022/04/28 02:22:22;;;;;;;;;;;16.70;87.10;;;;;;3151183;28;20014;-27
2022/04/28 02:23:53;;;;;;;;;;;16.70;87.10;;;;;;3151105;28;19924;-27
2022/04/28 02:25:24;;;;;;;;;;;16.60;87.00;;;;;;3150724;28;19920;-26
2022/04/28 02:26:55;;;;;;;;;;;16.70;87.00;;;;;;3150825;28;20366;-26
2022/04/28 02:28:26;;;;;;;;;;;16.60;86.90;;;;;;3151011;28;19920;-25
2022/04/28 02:29:57;;;;;;;;;;;16.60;86.90;;;;;;3150806;28;19955;-24
2022/04/28 02:31:28;;;;;;;;;;;16.60;86.80;;;;;;3150684;28;19962;-27
2022/04/28 02:33:11;;;;;;;;;;;16.60;86.90;;;;;;3150580;28;19920;-27
2022/04/28 02:34:42;;;;;;;;;;;16.60;86.80;;;;;;3150932;28;19932;-25
2022/04/28 02:36:13;;;;;;;;;;;16.60;86.80;;;;;;3151120;28;20354;-25
2022/04/28 02:37:44;;;;;;;;;;;16.60;86.80;;;;;;3150515;28;19924;-25
2022/04/28 02:39:18;;;;;;;;;;;16.60;86.70;;;;;;3150810;28;19920;-27
2022/04/28 02:40:49;;;;;;;;;;;16.60;86.70;;;;;;3150481;28;20384;-31
2022/04/28 02:42:20;;;;;;;;;;;16.60;86.70;;;;;;3150457;28;19920;-25
2022/04/28 02:43:51;;;;;;;;;;;16.60;86.60;;;;;;3150594;28;19921;-27
2022/04/28 02:45:22;;;;;;;;;;;16.60;86.70;;;;;;3150779;28;20358;-25
2022/04/28 02:46:52;;;;;;;;;;;16.60;86.60;;;;;;3150822;28;19927;-25
2022/04/28 02:48:23;;;;;;;;;;;16.60;86.60;;;;;;3150107;28;19931;-27
2022/04/28 02:49:54;;;;;;;;;;;16.60;86.60;;;;;;3150385;28;19943;-26
2022/04/28 02:51:25;;;;;;;;;;;16.60;86.60;;;;;;3150662;28;19920;-25
2022/04/28 02:52:56;;;;;;;;;;;16.60;86.50;;;;;;3150780;28;19958;-24
2022/04/28 02:54:27;;;;;;;;;;;16.60;86.50;;;;;;3149689;28;19928;-28
2022/04/28 02:55:58;;;;;;;;;;;16.60;86.40;;;;;;3150120;28;20003;-28
2022/04/28 02:57:29;;;;;;;;;;;16.60;86.40;;;;;;3150681;28;19928;-25
2022/04/28 02:59:00;;;;;;;;;;;16.60;86.40;;;;;;3150660;28;19925;-25
2022/04/28 03:00:31;;;;;;;;;;;16.60;86.40;;;;;;3150476;28;19921;-27
2022/04/28 03:02:02;;;;;;;;;;;16.60;86.40;;;;;;3150581;28;19927;-25
2022/04/28 03:03:33;;;;;;;;;;;16.60;86.40;;;;;;3150573;28;19920;-27
2022/04/28 03:05:04;;;;;;;;;;;16.60;86.40;;;;;;3150740;28;19964;-24
2022/04/28 03:12:23;;;;;;;;;;;16.60;86.30;;;;;;3174085;28;19923;-26
2022/04/28 03:13:56;;;;;;;;;;;16.60;86.30;;;;;;3174129;28;19968;-27
2022/04/28 03:15:27;;;;;;;;;;;16.60;86.30;;;;;;3174221;28;20002;-26
2022/04/28 03:16:57;;;;;;;;;;;16.60;86.20;;;;;;3161596;28;19969;-26
2022/04/28 03:18:28;;;;;;;;;;;16.60;86.20;;;;;;3170011;28;19919;-25
2022/04/28 03:19:59;;;;;;;;;;;16.60;86.20;;;;;;3174639;28;20026;-27
2022/04/28 03:21:30;;;;;;;;;;;16.60;86.10;;;;;;3174242;28;19920;-26
2022/04/28 03:23:01;;;;;;;;;;;16.60;86.00;;;;;;3174177;28;19919;-24
2022/04/28 03:24:32;;;;;;;;;;;16.60;85.90;;;;;;3174054;28;19967;-24
2022/04/28 03:26:03;;;;;;;;;;;16.60;85.70;;;;;;3174058;28;19919;-28
2022/04/28 03:27:34;;;;;;;;;;;16.60;85.70;;;;;;3173879;28;19924;-25
2022/04/28 03:29:05;;;;;;;;;;;16.60;85.60;;;;;;3173923;28;19920;-28
2022/04/28 03:30:35;;;;;;;;;;;16.60;85.60;;;;;;3161352;28;19927;-26
2022/04/28 03:32:10;;;;;;;;;;;16.60;85.50;;;;;;3169909;28;20019;-25
2022/04/28 03:33:40;;;;;;;;;;;16.60;85.50;;;;;;3173908;28;19947;-24
2022/04/28 03:35:11;;;;;;;;;;;16.60;85.50;;;;;;3173847;28;19920;-26
2022/04/28 03:36:51;;;;;;;;;;;16.60;85.50;;;;;;3173982;28;19930;-24
2022/04/28 03:38:22;;;;;;;;;;;16.60;85.40;;;;;;3173967;28;20022;-26
2022/04/28 03:39:53;;;;;;;;;;;16.60;85.40;;;;;;3161335;28;20485;-25
2022/04/28 03:41:24;;;;;;;;;;;16.60;85.40;;;;;;3169546;28;19920;-26
2022/04/28 03:42:57;;;;;;;;;;;16.60;85.30;;;;;;3172615;28;19927;-24
2022/04/28 03:44:28;;;;;;;;;;;16.60;85.20;;;;;;3149882;28;19921;-27
2022/04/28 03:45:58;;;;;;;;;;;16.60;85.20;;;;;;3149819;28;19920;-26
2022/04/28 03:47:32;;;;;;;;;;;16.60;85.10;;;;;;3149935;28;19970;-27
2022/04/28 03:49:03;;;;;;;;;;;16.60;85.10;;;;;;3150123;28;19924;-24
2022/04/28 03:50:34;;;;;;;;;;;16.60;85.10;;;;;;3149931;28;19927;-26
2022/04/28 03:52:06;;;;;;;;;;;16.60;85.10;;;;;;3149753;28;19921;-26
2022/04/28 03:53:36;;;;;;;;;;;16.60;85.10;;;;;;3148790;28;19920;-26
2022/04/28 03:55:08;;;;;;;;;;;16.60;85.70;;;;;;3150385;28;19927;-24
2022/04/28 03:56:39;;;;;;;;;;;16.60;85.20;;;;;;3148734;28;20378;-30
2022/04/28 03:58:10;;;;;;;;;;;16.60;85.10;;;;;;3149569;28;20011;-26
2022/04/28 03:59:41;;;;;;;;;;;16.60;85.10;;;;;;3150009;28;20388;-27
2022/04/28 04:01:12;;;;;;;;;;;16.50;85.10;;;;;;3149588;28;20004;-25
2022/04/28 04:02:43;;;;;;;;;;;16.50;85.00;;;;;;3149628;28;19920;-25
2022/04/28 04:04:14;;;;;;;;;;;16.60;85.00;;;;;;3149924;28;19920;-27
2022/04/28 04:05:45;;;;;;;;;;;16.50;85.00;;;;;;3149939;28;19921;-26
2022/04/28 04:07:15;;;;;;;;;;;16.60;85.00;;;;;;3149545;28;20407;-30
2022/04/28 04:08:46;;;;;;;;;;;16.50;85.00;;;;;;3149546;28;20019;-28
2022/04/28 04:10:17;;;;;;;;;;;16.50;84.90;;;;;;3149677;28;19920;-27
2022/04/28 04:11:48;;;;;;;;;;;16.60;85.00;;;;;;3149979;28;19957;-25
2022/04/28 04:13:19;;;;;;;;;;;16.60;85.00;;;;;;3149271;28;20277;-26
2022/04/28 04:14:50;;;;;;;;;;;16.50;85.00;;;;;;3149751;28;19928;-28
2022/04/28 04:16:20;;;;;;;;;;;16.60;85.00;;;;;;3149601;28;19920;-26
2022/04/28 04:17:51;;;;;;;;;;;16.60;85.00;;;;;;3149640;28;19943;-27
2022/04/28 04:19:22;;;;;;;;;;;16.60;84.90;;;;;;3149433;28;19956;-25
2022/04/28 04:20:53;;;;;;;;;;;16.50;84.90;;;;;;3149545;28;19930;-26
2022/04/28 04:22:24;;;;;;;;;;;16.50;84.80;;;;;;3149478;28;19928;-26
2022/04/28 04:23:54;;;;;;;;;;;16.60;84.80;;;;;;3149433;28;20419;-26
2022/04/28 04:25:25;;;;;;;;;;;16.50;84.70;;;;;;3148512;28;20403;-25
2022/04/28 04:26:57;;;;;;;3.15;2.05;;;16.50;84.60;;;;;;3148436;28;20476;-26
2022/04/28 04:28:28;;;;;;;3.55;2.15;;;16.50;84.60;;;;;;3149084;28;20163;-26
2022/04/28 04:29:59;;;;;;;3.13;2.20;;;16.60;84.60;;;;;;3148852;28;20075;-27
2022/04/28 04:33:20;;;;;;;3.80;1.80;;;16.50;84.50;;;;;;3148906;28;20048;-24
2022/04/28 04:34:51;;;;;;;4.25;1.90;;;16.50;84.60;;;;;;3145785;28;20048;-25
2022/04/28 04:36:22;;;;;;;;;;;16.60;84.60;;;;;;3137881;28;20052;-27
2022/04/28 04:37:53;;;;;;;3.78;1.90;;;16.60;84.60;;;;;;3136135;28;19931;-25
2022/04/28 04:39:24;;;;;;;3.42;1.95;;;16.50;84.50;;;;;;3136518;28;20120;-29
2022/04/28 04:40:55;;;;;;;3.35;2.00;;;16.60;84.60;;;;;;3136997;28;20063;-25
2022/04/28 04:42:26;;;;;;;3.00;1.65;;;16.60;84.60;;;;;;3136285;28;20483;-24
2022/04/28 04:43:57;;;;;;;2.53;1.50;;;16.50;84.50;;;;;;3136225;28;20045;-25
2022/04/28 04:45:28;;;;;;;2.55;1.50;;;16.50;84.50;;;;;;3136476;28;20049;-25
2022/04/28 04:46:59;;;;;;;3.03;1.77;;;16.60;84.60;;;;;;3141130;28;20037;-25
2022/04/28 04:48:31;;;;;;;3.05;1.73;;;16.50;84.50;;;;;;3136337;28;20049;-25
2022/04/28 04:50:03;;;;;;;2.83;1.60;;;16.50;84.50;;;;;;3137512;28;20473;-26
2022/04/28 04:51:34;;;;;;;3.30;1.73;;;16.50;84.50;;;;;;3142486;28;20131;-27
2022/04/28 04:53:05;;;;;;;3.05;1.80;;;16.60;84.60;;;;;;3141301;28;20417;-26
2022/04/28 04:54:36;;;;;;;3.17;1.95;;;16.60;84.50;;;;;;3141928;28;20040;-28
2022/04/28 04:56:07;;;;;;;3.08;1.83;;;16.60;84.50;;;;;;3142681;28;20542;-25
2022/04/28 04:57:39;;;;;;;3.42;1.50;;;16.60;84.60;;;;;;3139929;28;20191;-25
2022/04/28 04:59:10;;;;;;;2.45;1.45;;;16.60;84.70;;;;;;3141372;28;20040;-25
2022/04/28 05:00:41;;;;;;;3.22;1.73;;;16.50;84.70;;;;;;3142608;28;20037;-25
2022/04/28 05:02:12;;;;;;;3.47;2.00;;;16.50;84.80;;;;;;3142700;28;20053;-26
2022/04/28 05:03:43;;;;;;;2.40;1.38;;;16.50;84.80;;;;;;3141578;28;20493;-24
2022/04/28 05:05:14;;;;;;;3.80;1.73;;;16.50;84.80;;;;;;3141038;28;20065;-26
2022/04/28 05:06:45;;;;;;;2.45;1.38;;;16.50;84.70;;;;;;3142901;28;20472;-27
2022/04/28 05:08:17;;;;;;;3.40;1.83;;;16.50;84.60;;;;;;3141469;28;20045;-26
2022/04/28 05:09:48;;;;;;;2.40;1.55;;;16.60;84.60;;;;;;3140381;28;20102;-24
2022/04/28 05:11:19;;;;;;;4.10;1.98;;;16.60;84.50;;;;;;3136014;28;20049;-25
2022/04/28 05:12:50;;;;;;;2.33;1.75;;;16.60;84.50;;;;;;3136230;28;20061;-25
2022/04/28 05:16:43;;;;;;;4.07;2.10;;;16.70;84.40;;;;;;4611911;19;20664;-24
2022/04/28 05:18:14;;;;;;;3.25;1.80;;;16.80;84.20;;;;;;4612117;19;20102;-25
2022/04/28 05:19:45;;;;;;;3.78;1.90;;;16.80;84.10;;;;;;4612532;19;20030;-24
2022/04/28 05:21:16;;;;;;;4.65;2.30;;;16.90;84.10;;;;;;4612008;19;20021;-28
2022/04/28 05:22:48;;;;;;;4.80;2.05;;;16.80;84.00;;;;;;4613072;19;20463;-24
2022/04/28 05:24:20;;;;;;;3.10;1.67;;;16.80;83.90;;;;;;4612007;19;20096;-25
2022/04/28 05:25:51;;;;;;;2.80;1.58;;;16.90;84.00;;;;;;4610738;19;20025;-26
2022/04/28 05:27:22;;;;;;;3.72;1.60;;;16.90;84.00;;;;;;4612353;19;20021;-25
2022/04/28 05:28:53;;;;;;;2.28;1.48;;;16.90;84.00;;;;;;4612982;19;20463;-24
2022/04/28 05:30:24;;;;;;;3.47;1.85;;;16.80;83.90;;;;;;4611750;19;20011;-25
2022/04/28 05:31:55;;;;;;;2.58;1.42;;;16.90;83.90;;;;;;4612305;19;20076;-25
2022/04/28 05:33:26;;;;;;;3.00;1.98;;;16.80;83.70;;;;;;4612344;19;20021;-25
2022/04/28 05:34:57;;;;;;;5.40;1.80;;;16.90;83.80;;;;;;4611964;19;20006;-24
2022/04/28 05:36:28;;;;;;;3.45;1.73;;;16.90;83.70;;;;;;4610118;19;20018;-26
2022/04/28 05:37:59;;;;;;;3.03;1.70;;;16.80;83.60;;;;;;4612459;19;20026;-26
2022/04/28 05:39:30;;;;;;;3.22;2.35;;;16.80;83.60;;;;;;4611186;19;20025;-26
2022/04/28 05:41:02;;;;;;;3.10;2.10;;;16.80;83.60;;;;;;4610605;19;20010;-23
2022/04/28 05:46:12;;;;;;;3.03;1.80;;;16.90;83.60;;;;;;4611462;19;20410;-26
2022/04/28 05:47:43;;;;;;;;;;;16.90;83.40;;;;;;4612736;19;20373;-26
2022/04/28 05:49:16;;;;;;;3.50;2.30;;;17.00;83.20;;;;;;4612365;19;19917;-26
2022/04/28 05:50:47;;;;;;;3.55;2.00;;;17.00;83.00;;;;;;4612822;19;20010;-25
2022/04/28 05:52:18;;;;;;;2.92;1.90;;;17.10;82.90;;;;;;4611851;19;20010;-25
2022/04/28 05:53:50;;;;;;;5.18;1.98;;;17.10;82.80;;;;;;4613169;19;20018;-24
2022/04/28 05:55:22;;;;;;;3.08;1.60;;;17.10;82.70;;;;;;4611512;19;20049;-23
2022/04/28 05:56:53;;;;;;;4.32;1.88;;;17.20;82.70;;;;;;4612393;19;20491;-22
2022/04/28 05:58:24;;;;;;;3.17;1.70;;;17.10;82.60;;;;;;4611324;19;20467;-21
2022/04/28 05:59:56;;;;;;;3.13;1.60;;;17.20;82.60;;;;;;4612857;19;20360;-24
2022/04/28 06:01:28;;;;;;;;;;;17.20;82.60;;;;;;4613014;19;20025;-23
2022/04/28 06:02:59;;;;;;;;;;;17.30;82.50;;;;;;4614782;19;19915;-25
2022/04/28 06:04:30;;;;;;;;;;;17.40;82.30;;;;;;4614573;19;19923;-24
2022/04/28 06:06:01;;;;;;;;;;;17.50;82.30;;;;;;4614857;19;20333;-26
2022/04/28 06:07:32;;;;;;;;;;;17.60;82.10;;;;;;4613498;19;19919;-24
2022/04/28 06:09:03;;;;;;;;;;;17.60;81.90;;;;;;4612693;19;19914;-25
2022/04/28 06:10:34;;;;;;;;;;;17.60;81.80;;;;;;4614148;19;20369;-28
2022/04/28 06:12:05;;;;;;;;;;;17.70;81.60;;;;;;4612046;19;19981;-25
2022/04/28 06:13:37;;;;;;;;;;;17.70;81.50;;;;;;4611582;19;19918;-24
2022/04/28 06:15:08;;;;;;;;;;;17.80;81.50;;;;;;4613779;19;19919;-23
2022/04/28 06:18:29;;;;;;;;;;;17.70;81.90;;;;;;4613884;19;19929;-28
2022/04/28 06:20:00;;;;;;;;;;;17.80;81.30;;;;;;4614583;19;19918;-24
2022/04/28 06:21:31;;;;;;;;;;;17.80;81.30;;;;;;4613689;19;19922;-26
2022/04/28 06:23:02;;;;;;;;;;;17.80;81.20;;;;;;4613664;19;19917;-25
2022/04/28 06:24:33;;;;;;;;;;;17.80;81.20;;;;;;4613330;19;20246;-25
2022/04/28 06:26:04;;;;;;;;;;;17.80;81.30;;;;;;4611340;19;19970;-25
2022/04/28 06:27:36;;;;;;;;;;;17.90;81.20;;;;;;4597352;19;20311;-26
2022/04/28 06:29:06;;;;;;;;;;;17.80;81.20;;;;;;4594770;19;19952;-24
2022/04/28 06:30:38;;;;;;;;;;;17.90;81.10;;;;;;4594417;19;19959;-22
2022/04/28 06:32:08;;;;;;;;;;;17.90;81.10;;;;;;4594118;19;19919;-24
2022/04/28 06:33:40;;;;;;;;;;;17.90;81.10;;;;;;4594797;19;19919;-25
2022/04/28 06:35:11;;;;;;;;;;;17.80;81.00;;;;;;4593775;19;20434;-22
2022/04/28 06:36:42;;;;;;;;;;;17.90;81.00;;;;;;4594233;19;20329;-23
2022/04/28 06:38:13;;;;;;;;;;;18.00;80.90;;;;;;4594677;19;19982;-23
2022/04/28 06:39:44;;;;;;;;;;;18.10;80.70;;;;;;4594316;19;20263;-21
2022/04/28 06:41:15;;;;;;;;;;;18.20;80.50;;;;;;4594084;19;19921;-22
2022/04/28 06:42:50;;;;;;;;;;;18.20;80.20;;;;;;4594088;19;20373;-25
2022/04/28 06:44:20;;;;;;;;;;;18.30;80.00;;;;;;4591667;19;19974;-24
2022/04/28 06:47:41;;;;;;;;;;;18.40;79.50;;;;;;4593669;19;19918;-25
2022/04/28 06:49:12;;;;;;;;;;;18.60;79.30;;;;;;4592724;19;19933;-24
2022/04/28 06:50:44;;;;;;;;;;;18.60;79.50;;;;;;4592525;19;19915;-24
2022/04/28 06:52:15;;;;;;;;;;;18.70;78.90;;;;;;4593958;19;19915;-25
2022/04/28 06:53:46;;;;;;;;;;;18.80;78.60;;;;;;4590991;19;20129;-27
2022/04/28 06:55:17;;;;;;;;;;;18.80;78.50;;;;;;4592729;19;19978;-25
2022/04/28 06:56:48;;;;;;;3.70;2.33;;;18.80;78.60;;;;;;4591392;19;19922;-24
2022/04/28 06:58:21;;;;;;;4.03;2.53;;;18.80;78.40;;;;;;4592818;19;20014;-26
2022/04/28 06:59:52;;;;;;;3.58;2.20;;;18.80;78.30;;;;;;4591277;19;20028;-25
2022/04/28 07:01:25;;;;;;;4.28;2.13;;;18.80;78.40;;;;;;4592158;19;20010;-28
2022/04/28 07:02:59;;;;;;;3.75;2.10;;;18.80;78.40;;;;;;4593445;19;20014;-25
2022/04/28 07:04:31;;;;;;;2.95;2.10;;;18.80;78.30;;;;;;4592361;19;20398;-27
2022/04/28 07:06:02;;;;;;;3.17;2.08;;;18.80;78.30;;;;;;4592773;19;20017;-26
2022/04/28 07:07:33;;;;;;;3.60;1.85;;;18.70;78.20;;;;;;4593008;19;20022;-27
2022/04/28 07:09:05;;;;;;;3.70;2.00;;;18.70;78.30;;;;;;4592887;19;20021;-25
2022/04/28 07:10:38;;;;;;;3.38;2.00;;;18.70;78.30;;;;;;4591961;19;20011;-26
2022/04/28 07:12:12;;;;;;;3.45;2.40;;;18.60;78.40;;;;;;4591159;19;20396;-25
2022/04/28 07:13:44;;;;;;;2.50;1.58;;;18.60;78.30;;;;;;4591879;19;20040;-27
2022/04/28 07:15:15;;;;;;;3.50;2.30;;;18.60;78.30;;;;;;4592070;19;20022;-26
2022/04/28 07:16:46;;;;;;;3.63;2.53;;;18.60;78.30;;;;;;4592565;19;20570;-28
2022/04/28 07:18:17;;;;;;;3.80;1.98;;;18.60;78.40;;;;;;4591232;19;20027;-25
2022/04/28 07:19:49;;;;;;;3.78;1.88;;;18.60;78.50;;;;;;4590943;19;20014;-24
2022/04/28 07:21:21;;;;;;;3.85;2.25;;;18.60;78.50;;;;;;4592209;19;20010;-26
2022/04/28 07:22:53;;;;;;;4.10;1.67;;;18.60;78.40;;;;;;4592044;19;20464;-26
2022/04/28 07:24:26;;;;;;;3.25;1.92;;;18.60;78.30;;;;;;4592726;19;20456;-27
2022/04/28 07:25:58;;;;;;;3.75;2.00;;;18.60;78.20;;;;;;4589658;19;20014;-26
2022/04/28 07:27:30;;;;;;;4.10;1.95;;;18.60;78.20;;;;;;4591456;19;20333;-24
2022/04/28 07:29:01;;;;;;;4.18;2.10;;;18.60;78.20;;;;;;4592371;19;20011;-24
2022/04/28 07:30:33;;;;;;;2.83;1.50;;;18.60;78.30;;;;;;4592001;19;20081;-24
2022/04/28 07:32:05;;;;;;;3.13;1.90;;;18.60;78.30;;;;;;4590704;19;20014;-27
2022/04/28 07:33:36;;;;;;;3.67;1.90;;;18.60;78.10;;;;;;4590614;19;20007;-24
2022/04/28 07:35:09;;;;;;;4.53;2.00;;;18.60;78.20;;;;;;4592339;19;20062;-24
2022/04/28 07:36:40;;;;;;;3.22;2.00;;;18.50;78.20;;;;;;4589994;19;20018;-26
2022/04/28 07:38:11;;;;;;;2.65;1.52;;;18.50;78.30;;;;;;4591231;19;20018;-24
2022/04/28 07:39:43;;;;;;;3.38;1.63;;;18.50;78.30;;;;;;4585158;19;20014;-28
2022/04/28 07:41:15;;;;;;;3.72;2.20;;;18.40;78.20;;;;;;4591030;19;20349;-23
2022/04/28 07:42:46;;;;;;;3.08;2.00;;;18.40;78.30;;;;;;4590934;19;20020;-26
2022/04/28 07:44:18;;;;;;;;;;;18.40;78.30;;;;;;4589095;19;20077;-26
2022/04/28 07:45:50;;;;;;;2.72;1.50;;;18.40;78.30;;;;;;4591064;19;19911;-24
2022/04/28 07:47:22;;;;;;;3.28;1.83;;;18.40;78.20;;;;;;4591205;19;20070;-26
2022/04/28 07:48:55;;;;;;;2.92;1.65;;;18.40;78.20;;;;;;4590522;19;20420;-26
2022/04/28 07:50:28;;;;;;;4.30;2.33;;;18.40;78.30;;;;;;4590626;19;20334;-24
2022/04/28 07:51:59;;;;;;;4.22;2.03;;;18.40;78.60;;;;;;4591587;19;20014;-25
2022/04/28 07:53:32;;;;;;;3.00;1.85;;;18.40;78.30;;;;;;4590550;19;20022;-24
2022/04/28 07:55:04;;;;;;;3.33;1.92;;;18.40;78.20;;;;;;4592248;19;20129;-26
2022/04/28 07:56:36;;;;;;;2.92;1.65;;;18.40;78.10;;;;;;4590197;19;20487;-27
2022/04/28 07:58:07;;;;;;;2.60;1.75;;;18.50;77.90;;;;;;4590390;19;20047;-25
2022/04/28 07:59:38;;;;;;;2.75;1.83;;;18.40;78.20;;;;;;4590675;19;20027;-25
2022/04/28 08:01:12;;;;;;;2.88;1.70;;;18.50;78.30;;;;;;4592561;19;20011;-25
2022/04/28 08:02:45;;;;;;;3.92;1.98;;;18.40;78.20;;;;;;4589593;19;20010;-24
2022/04/28 08:04:16;;;;;;;3.03;1.80;;;18.40;78.20;;;;;;4590680;19;20002;-27
2022/04/28 08:05:48;;;;;;;5.60;1.85;;;18.40;78.40;;;;;;4587634;19;20471;-25
2022/04/28 08:07:19;;;;;;;3.50;1.92;;;18.40;78.40;;;;;;4591222;19;20025;-22
2022/04/28 08:08:50;;;;;;;3.28;2.13;;;18.40;78.50;;;;;;4589055;19;20031;-23
2022/04/28 08:10:21;;;;;;;3.13;1.73;;;18.40;78.40;;;;;;4590076;19;20479;-24
2022/04/28 08:11:53;;;;;;;3.53;1.45;;;18.40;78.50;;;;;;4589332;19;20073;-24
2022/04/28 08:13:24;;;;;;;3.15;1.83;;;18.40;78.50;;;;;;4591156;19;20023;-23
2022/04/28 08:14:56;;;;;;;3.80;2.03;;;18.30;78.60;;;;;;4590797;19;20021;-27
2022/04/28 08:16:28;;;;;;;3.40;2.00;;;18.40;78.60;;;;;;4589109;19;20037;-23
2022/04/28 08:18:00;;;;;;;3.13;1.60;;;18.40;78.60;;;;;;4590165;19;20364;-24
2022/04/28 08:19:32;;;;;;;;;;;18.40;78.40;;;;;;4591310;19;20050;-24
2022/04/28 08:21:04;;;;;;;3.90;1.70;;;18.30;78.40;;;;;;4589825;19;19990;-25
2022/04/28 08:22:35;;;;;;;4.32;1.90;;;18.30;78.50;;;;;;4589804;19;20452;-29
2022/04/28 08:24:07;;;;;;;3.13;2.05;;;18.30;78.60;;;;;;4591499;19;20014;-24
2022/04/28 08:25:40;;;;;;;3.15;1.90;;;18.40;78.70;;;;;;4590296;19;20057;-26
2022/04/28 08:27:12;;;;;;;2.97;1.80;;;18.40;78.60;;;;;;4586743;19;20043;-24
2022/04/28 08:28:42;;;;;;;;;;;18.40;78.60;;;;;;4589321;19;20022;-27
2022/04/28 08:30:15;;;;;;;3.00;1.70;;;18.40;78.60;;;;;;4590532;19;19923;-25
2022/04/28 08:31:46;;;;;;;3.72;1.70;;;18.40;78.70;;;;;;4591146;19;20473;-23
2022/04/28 08:33:17;;;;;;;3.13;1.65;;;18.40;78.70;;;;;;4585369;19;20019;-25
2022/04/28 08:34:48;;;;;;;2.65;1.65;;;18.40;78.60;;;;;;4590325;19;20062;-28
2022/04/28 08:36:20;;;;;;;2.70;1.65;;;18.40;78.70;;;;;;4589517;19;20037;-28
2022/04/28 08:37:51;;;;;;;2.60;1.70;;;18.40;78.50;;;;;;4590093;19;20018;-23
2022/04/28 08:39:22;;;;;;;4.20;2.08;;;18.40;78.40;;;;;;4589352;19;20346;-24
2022/04/28 08:40:59;;;;;;;2.83;1.45;;;18.40;78.50;;;;;;4589261;19;20013;-26
2022/04/28 08:42:30;;;;;;;2.33;1.55;;;18.40;78.50;;;;;;4590268;19;20011;-24
2022/04/28 08:44:03;;;;;;;4.25;1.77;;;18.40;78.50;;;;;;4588708;19;20406;-24
2022/04/28 08:45:39;;;;;;;2.90;1.80;;;18.40;78.60;;;;;;4590209;19;20015;-24
2022/04/28 08:47:11;;;;;;;3.22;1.75;;;18.40;78.60;;;;;;4590103;19;20010;-25
2022/04/28 08:48:42;;;;;;;3.13;1.58;;;18.40;78.50;;;;;;4589177;19;20010;-24
2022/04/28 08:50:14;;;;;;;2.83;1.70;;;18.40;78.50;;;;;;4588033;19;20019;-25
2022/04/28 08:51:45;;;;;;;;;;;18.40;78.60;;;;;;4589708;19;20031;-25
2022/04/28 08:53:16;;;;;;;3.35;1.60;;;18.40;78.60;;;;;;4588763;19;19923;-24
2022/04/28 08:54:47;;;;;;;;;;;18.40;78.70;;;;;;4586854;19;20025;-24